sensor_id;sensor_type;location;lat;lon;timestamp;pressure;altitude;pressure_sealevel;temperature;humidity
69528;BME280;57136;51.986;4.468;2023-03-25T00:00:58;100188.59;;;9.94;96.27
69528;BME280;57136;51.986;4.468;2023-03-25T00:03:31;100192.06;;;10.03;95.46
69528;BME280;57136;51.986;4.468;2023-03-25T00:05:59;100166.97;;;9.79;95.38
69528;BME280;57136;51.986;4.468;2023-03-25T00:08:25;100160.03;;;9.81;96.00
69528;BME280;57136;51.986;4.468;2023-03-25T00:10:58;100182.53;;;9.98;95.17
69528;BME280;57136;51.986;4.468;2023-03-25T00:13:24;100184.22;;;10.05;95.39
69528;BME280;57136;51.986;4.468;2023-03-25T00:15:50;100160.94;;;9.65;96.07
69528;BME280;57136;51.986;4.468;2023-03-25T00:18:18;100180.88;;;9.73;95.63
69528;BME280;57136;51.986;4.468;2023-03-25T00:20:45;100169.56;;;9.82;95.14
69528;BME280;57136;51.986;4.468;2023-03-25T00:23:14;100181.66;;;9.99;95.53
69528;BME280;57136;51.986;4.468;2023-03-25T00:25:39;100173.03;;;9.83;95.24
69528;BME280;57136;51.986;4.468;2023-03-25T00:28:06;100162.69;;;9.59;96.02
69528;BME280;57136;51.986;4.468;2023-03-25T00:30:32;100171.34;;;9.72;95.17
69528;BME280;57136;51.986;4.468;2023-03-25T00:32:58;100169.56;;;9.79;95.61
69528;BME280;57136;51.986;4.468;2023-03-25T00:35:25;100171.28;;;9.88;95.14
69528;BME280;57136;51.986;4.468;2023-03-25T00:37:51;100163.50;;;9.77;95.39
69528;BME280;57136;51.986;4.468;2023-03-25T00:40:22;100168.69;;;9.85;95.53
69528;BME280;57136;51.986;4.468;2023-03-25T00:42:47;100168.72;;;9.76;96.30
69528;BME280;57136;51.986;4.468;2023-03-25T00:45:15;100173.94;;;9.76;96.79
69528;BME280;57136;51.986;4.468;2023-03-25T00:47:41;100170.44;;;9.77;97.28
69528;BME280;57136;51.986;4.468;2023-03-25T00:50:07;100155.72;;;9.76;96.99
69528;BME280;57136;51.986;4.468;2023-03-25T00:52:32;100165.25;;;9.81;96.89
69528;BME280;57136;51.986;4.468;2023-03-25T00:54:57;100161.75;;;9.82;96.55
69528;BME280;57136;51.986;4.468;2023-03-25T00:57:23;100166.94;;;9.87;96.66
69528;BME280;57136;51.986;4.468;2023-03-25T00:59:48;100163.50;;;9.80;96.79
69528;BME280;57136;51.986;4.468;2023-03-25T01:02:13;100165.25;;;9.75;97.52
69528;BME280;57136;51.986;4.468;2023-03-25T01:04:40;100161.81;;;9.56;98.73
69528;BME280;57136;51.986;4.468;2023-03-25T01:07:06;100160.09;;;9.56;99.54
69528;BME280;57136;51.986;4.468;2023-03-25T01:09:32;100170.50;;;9.55;100.00
69528;BME280;57136;51.986;4.468;2023-03-25T01:11:57;100156.63;;;9.61;99.55
69528;BME280;57136;51.986;4.468;2023-03-25T01:14:23;100164.41;;;9.59;100.00
69528;BME280;57136;51.986;4.468;2023-03-25T01:16:51;100171.34;;;9.65;100.00
69528;BME280;57136;51.986;4.468;2023-03-25T01:19:17;100155.75;;;9.54;100.00
69528;BME280;57136;51.986;4.468;2023-03-25T01:21:42;100156.66;;;9.45;100.00
69528;BME280;57136;51.986;4.468;2023-03-25T01:24:11;100172.28;;;9.43;100.00
69528;BME280;57136;51.986;4.468;2023-03-25T01:26:37;100156.66;;;9.42;100.00
69528;BME280;57136;51.986;4.468;2023-03-25T01:29:02;100173.97;;;9.49;100.00
69528;BME280;57136;51.986;4.468;2023-03-25T01:31:27;100169.63;;;9.61;100.00
69528;BME280;57136;51.986;4.468;2023-03-25T01:33:58;100152.34;;;9.36;100.00
69528;BME280;57136;51.986;4.468;2023-03-25T01:36:25;100163.59;;;9.40;100.00
69528;BME280;57136;51.986;4.468;2023-03-25T01:38:54;100152.31;;;9.47;100.00
69528;BME280;57136;51.986;4.468;2023-03-25T01:41:20;100158.41;;;9.41;100.00
69528;BME280;57136;51.986;4.468;2023-03-25T01:44:09;100141.97;;;9.28;100.00
69528;BME280;57136;51.986;4.468;2023-03-25T01:46:37;100152.34;;;9.39;100.00
69528;BME280;57136;51.986;4.468;2023-03-25T01:49:08;100154.97;;;9.22;100.00
69528;BME280;57136;51.986;4.468;2023-03-25T01:51:36;100158.41;;;9.24;100.00
69528;BME280;57136;51.986;4.468;2023-03-25T01:54:03;100154.06;;;9.25;100.00
69528;BME280;57136;51.986;4.468;2023-03-25T01:56:32;100151.50;;;9.14;100.00
69528;BME280;57136;51.986;4.468;2023-03-25T01:59:00;100152.34;;;9.36;100.00
69528;BME280;57136;51.986;4.468;2023-03-25T02:01:27;100150.59;;;9.40;100.00
69528;BME280;57136;51.986;4.468;2023-03-25T02:03:54;100136.72;;;9.41;100.00
69528;BME280;57136;51.986;4.468;2023-03-25T02:06:32;100145.38;;;9.43;100.00
69528;BME280;57136;51.986;4.468;2023-03-25T02:09:02;100141.03;;;9.48;100.00
69528;BME280;57136;51.986;4.468;2023-03-25T02:11:29;100125.47;;;9.33;100.00
69528;BME280;57136;51.986;4.468;2023-03-25T02:14:02;100145.41;;;9.26;100.00
69528;BME280;57136;51.986;4.468;2023-03-25T02:16:51;100153.22;;;9.24;100.00
69528;BME280;57136;51.986;4.468;2023-03-25T02:22:30;100141.03;;;9.50;100.00
69528;BME280;57136;51.986;4.468;2023-03-25T02:30:31;100121.97;;;9.55;100.00
69528;BME280;57136;51.986;4.468;2023-03-25T02:36:33;100127.13;;;9.60;100.00
69528;BME280;57136;51.986;4.468;2023-03-25T02:39:17;100133.22;;;9.57;100.00
69528;BME280;57136;51.986;4.468;2023-03-25T02:47:00;100097.69;;;9.50;100.00
69528;BME280;57136;51.986;4.468;2023-03-25T02:49:30;100119.34;;;9.55;100.00
69528;BME280;57136;51.986;4.468;2023-03-25T02:52:17;100114.97;;;9.64;100.00
69528;BME280;57136;51.986;4.468;2023-03-25T02:54:46;100122.84;;;9.42;100.00
69528;BME280;57136;51.986;4.468;2023-03-25T02:57:18;100117.59;;;9.65;100.00
69528;BME280;57136;51.986;4.468;2023-03-25T02:59:46;100119.38;;;9.49;100.00
69528;BME280;57136;51.986;4.468;2023-03-25T03:02:14;100109.78;;;9.64;100.00
69528;BME280;57136;51.986;4.468;2023-03-25T03:04:51;100101.13;;;9.54;100.00
69528;BME280;57136;51.986;4.468;2023-03-25T03:07:57;100102.91;;;9.44;100.00
69528;BME280;57136;51.986;4.468;2023-03-25T03:10:19;100104.63;;;9.57;100.00
69528;BME280;57136;51.986;4.468;2023-03-25T03:13:24;100101.13;;;9.62;100.00
69528;BME280;57136;51.986;4.468;2023-03-25T03:16:05;100099.44;;;9.39;100.00
69528;BME280;57136;51.986;4.468;2023-03-25T03:18:53;100081.31;;;9.06;100.00
69528;BME280;57136;51.986;4.468;2023-03-25T03:21:31;100076.16;;;8.98;100.00
69528;BME280;57136;51.986;4.468;2023-03-25T03:27:16;100099.53;;;8.95;100.00
69528;BME280;57136;51.986;4.468;2023-03-25T03:29:52;100106.47;;;8.99;100.00
69528;BME280;57136;51.986;4.468;2023-03-25T03:32:28;100081.34;;;8.64;100.00
69528;BME280;57136;51.986;4.468;2023-03-25T03:35:48;100107.31;;;8.58;100.00
69528;BME280;57136;51.986;4.468;2023-03-25T03:38:17;100098.69;;;8.72;100.00
69528;BME280;57136;51.986;4.468;2023-03-25T03:40:48;100108.19;;;8.66;100.00
69528;BME280;57136;51.986;4.468;2023-03-25T03:43:20;100109.06;;;8.75;100.00
69528;BME280;57136;51.986;4.468;2023-03-25T03:45:52;100101.25;;;8.62;100.00
69528;BME280;57136;51.986;4.468;2023-03-25T03:48:25;100108.22;;;8.62;100.00
69528;BME280;57136;51.986;4.468;2023-03-25T03:50:55;100098.66;;;8.79;100.00
69528;BME280;57136;51.986;4.468;2023-03-25T03:53:41;100113.41;;;8.90;100.00
69528;BME280;57136;51.986;4.468;2023-03-25T03:56:14;100106.47;;;8.96;100.00
69528;BME280;57136;51.986;4.468;2023-03-25T03:58:44;100116.00;;;8.91;100.00
69528;BME280;57136;51.986;4.468;2023-03-25T04:01:33;100119.44;;;9.01;100.00
69528;BME280;57136;51.986;4.468;2023-03-25T04:04:05;100098.66;;;8.93;100.00
69528;BME280;57136;51.986;4.468;2023-03-25T04:06:38;100091.75;;;8.98;100.00
69528;BME280;57136;51.986;4.468;2023-03-25T04:12:26;100109.91;;;8.89;100.00
69528;BME280;57136;51.986;4.468;2023-03-25T04:14:54;100113.38;;;8.96;100.00
69528;BME280;57136;51.986;4.468;2023-03-25T04:17:20;100104.72;;;8.89;100.00
69528;BME280;57136;51.986;4.468;2023-03-25T04:19:45;100116.84;;;8.96;100.00
69528;BME280;57136;51.986;4.468;2023-03-25T04:22:15;100108.19;;;8.94;100.00
69528;BME280;57136;51.986;4.468;2023-03-25T04:24:41;100124.66;;;9.04;100.00
69528;BME280;57136;51.986;4.468;2023-03-25T04:27:08;100103.00;;;9.04;100.00
69528;BME280;57136;51.986;4.468;2023-03-25T04:29:38;100107.31;;;9.11;100.00
69528;BME280;57136;51.986;4.468;2023-03-25T04:32:04;100128.97;;;8.97;100.00
69528;BME280;57136;51.986;4.468;2023-03-25T04:34:29;100123.78;;;9.02;100.00
69528;BME280;57136;51.986;4.468;2023-03-25T04:36:55;100119.44;;;8.95;100.00
69528;BME280;57136;51.986;4.468;2023-03-25T04:39:20;100129.84;;;8.99;100.00
69528;BME280;57136;51.986;4.468;2023-03-25T04:41:51;100124.66;;;8.84;100.00
69528;BME280;57136;51.986;4.468;2023-03-25T04:44:26;100124.66;;;8.92;100.00
69528;BME280;57136;51.986;4.468;2023-03-25T04:46:53;100128.97;;;8.97;100.00
69528;BME280;57136;51.986;4.468;2023-03-25T04:49:21;100136.78;;;8.94;100.00
69528;BME280;57136;51.986;4.468;2023-03-25T04:51:48;100128.97;;;8.99;100.00
69528;BME280;57136;51.986;4.468;2023-03-25T04:54:18;100136.75;;;8.99;100.00
69528;BME280;57136;51.986;4.468;2023-03-25T04:56:44;100139.38;;;9.11;100.00
69528;BME280;57136;51.986;4.468;2023-03-25T04:59:12;100132.44;;;8.93;100.00
69528;BME280;57136;51.986;4.468;2023-03-25T05:01:38;100133.31;;;8.86;100.00
69528;BME280;57136;51.986;4.468;2023-03-25T05:04:08;100152.34;;;8.77;100.00
69528;BME280;57136;51.986;4.468;2023-03-25T05:06:41;100154.09;;;8.92;100.00
69528;BME280;57136;51.986;4.468;2023-03-25T05:09:13;100145.44;;;8.72;100.00
69528;BME280;57136;51.986;4.468;2023-03-25T05:11:40;100153.22;;;8.72;100.00
69528;BME280;57136;51.986;4.468;2023-03-25T05:14:07;100139.38;;;8.76;100.00
69528;BME280;57136;51.986;4.468;2023-03-25T05:16:34;100118.56;;;8.65;100.00
69528;BME280;57136;51.986;4.468;2023-03-25T05:19:00;100140.25;;;8.61;100.00
69528;BME280;57136;51.986;4.468;2023-03-25T05:21:29;100138.50;;;8.74;100.00
69528;BME280;57136;51.986;4.468;2023-03-25T05:23:55;100132.44;;;8.62;100.00
69528;BME280;57136;51.986;4.468;2023-03-25T05:26:23;100141.09;;;8.61;100.00
69528;BME280;57136;51.986;4.468;2023-03-25T05:28:49;100122.91;;;8.58;100.00
69528;BME280;57136;51.986;4.468;2023-03-25T05:31:16;100137.63;;;8.73;100.00
69528;BME280;57136;51.986;4.468;2023-03-25T05:33:42;100152.34;;;8.85;100.00
69528;BME280;57136;51.986;4.468;2023-03-25T05:36:08;100146.31;;;8.78;100.00
69528;BME280;57136;51.986;4.468;2023-03-25T05:38:35;100151.50;;;8.98;100.00
69528;BME280;57136;51.986;4.468;2023-03-25T05:41:01;100141.09;;;8.86;100.00
69528;BME280;57136;51.986;4.468;2023-03-25T05:43:26;100142.00;;;8.90;100.00
69528;BME280;57136;51.986;4.468;2023-03-25T05:45:52;100154.09;;;8.92;100.00
69528;BME280;57136;51.986;4.468;2023-03-25T05:48:17;100154.09;;;8.72;100.00
69528;BME280;57136;51.986;4.468;2023-03-25T05:50:43;100163.63;;;8.82;100.00
69528;BME280;57136;51.986;4.468;2023-03-25T05:53:12;100148.03;;;8.90;100.00
69528;BME280;57136;51.986;4.468;2023-03-25T05:55:39;100162.75;;;8.94;100.00
69528;BME280;57136;51.986;4.468;2023-03-25T05:58:05;100169.69;;;9.06;100.00
69528;BME280;57136;51.986;4.468;2023-03-25T06:00:31;100157.56;;;8.87;100.00
69528;BME280;57136;51.986;4.468;2023-03-25T06:02:56;100162.75;;;8.94;100.00
69528;BME280;57136;51.986;4.468;2023-03-25T06:05:24;100176.63;;;9.09;100.00
69528;BME280;57136;51.986;4.468;2023-03-25T06:07:50;100171.41;;;8.95;100.00
69528;BME280;57136;51.986;4.468;2023-03-25T06:10:20;100155.81;;;8.76;100.00
69528;BME280;57136;51.986;4.468;2023-03-25T06:12:47;100180.09;;;9.03;100.00
69528;BME280;57136;51.986;4.468;2023-03-25T06:15:15;100167.94;;;9.07;100.00
69528;BME280;57136;51.986;4.468;2023-03-25T06:17:54;100188.75;;;9.05;100.00
69528;BME280;57136;51.986;4.468;2023-03-25T06:20:20;100187.91;;;9.05;100.00
69528;BME280;57136;51.986;4.468;2023-03-25T06:22:46;100185.28;;;8.92;100.00
69528;BME280;57136;51.986;4.468;2023-03-25T06:25:14;100179.22;;;9.12;100.00
69528;BME280;57136;51.986;4.468;2023-03-25T06:27:42;100185.31;;;9.19;100.00
69528;BME280;57136;51.986;4.468;2023-03-25T06:30:12;100187.03;;;9.04;100.00
69528;BME280;57136;51.986;4.468;2023-03-25T06:32:38;100193.06;;;9.11;100.00
69528;BME280;57136;51.986;4.468;2023-03-25T06:35:05;100196.53;;;9.35;100.00
69528;BME280;57136;51.986;4.468;2023-03-25T06:37:31;100174.03;;;9.21;100.00
69528;BME280;57136;51.986;4.468;2023-03-25T06:39:57;100195.69;;;9.11;100.00
69528;BME280;57136;51.986;4.468;2023-03-25T06:42:25;100192.22;;;9.10;100.00
69528;BME280;57136;51.986;4.468;2023-03-25T06:44:50;100193.94;;;9.24;100.00
69528;BME280;57136;51.986;4.468;2023-03-25T06:47:15;100182.66;;;9.25;100.00
69528;BME280;57136;51.986;4.468;2023-03-25T06:49:41;100183.56;;;9.32;100.00
69528;BME280;57136;51.986;4.468;2023-03-25T06:52:06;100193.97;;;9.28;100.00
69528;BME280;57136;51.986;4.468;2023-03-25T06:54:32;100195.69;;;9.40;100.00
69528;BME280;57136;51.986;4.468;2023-03-25T06:56:57;100193.06;;;9.57;100.00
69528;BME280;57136;51.986;4.468;2023-03-25T06:59:22;100194.78;;;9.43;100.00
69528;BME280;57136;51.986;4.468;2023-03-25T07:01:48;100204.31;;;9.70;100.00
69528;BME280;57136;51.986;4.468;2023-03-25T07:04:13;100210.41;;;9.55;100.00
69528;BME280;57136;51.986;4.468;2023-03-25T07:06:39;100216.44;;;9.62;100.00
69528;BME280;57136;51.986;4.468;2023-03-25T07:09:05;100210.38;;;9.63;99.95
69528;BME280;57136;51.986;4.468;2023-03-25T07:11:31;100213.84;;;9.56;99.37
69528;BME280;57136;51.986;4.468;2023-03-25T07:13:57;100213.88;;;9.47;99.84
69528;BME280;57136;51.986;4.468;2023-03-25T07:16:23;100216.41;;;9.76;99.11
69528;BME280;57136;51.986;4.468;2023-03-25T07:18:50;100197.41;;;9.46;99.79
69528;BME280;57136;51.986;4.468;2023-03-25T07:21:17;100195.63;;;9.59;98.52
69528;BME280;57136;51.986;4.468;2023-03-25T07:23:42;100216.44;;;9.67;98.85
69528;BME280;57136;51.986;4.468;2023-03-25T07:26:08;100220.75;;;9.86;98.55
69528;BME280;57136;51.986;4.468;2023-03-25T07:28:34;100214.66;;;9.95;97.63
69528;BME280;57136;51.986;4.468;2023-03-25T07:30:59;100195.53;;;9.92;96.70
69528;BME280;57136;51.986;4.468;2023-03-25T07:33:25;100212.09;;;9.63;98.00
69528;BME280;57136;51.986;4.468;2023-03-25T07:35:50;100219.81;;;9.97;97.31
69528;BME280;57136;51.986;4.468;2023-03-25T07:38:15;100225.09;;;9.72;98.06
69528;BME280;57136;51.986;4.468;2023-03-25T07:40:41;100231.06;;;10.14;98.16
69528;BME280;57136;51.986;4.468;2023-03-25T07:43:06;100232.81;;;10.04;97.47
69528;BME280;57136;51.986;4.468;2023-03-25T07:45:32;100221.56;;;9.98;97.31
69528;BME280;57136;51.986;4.468;2023-03-25T07:48:00;100216.41;;;9.76;97.98
69528;BME280;57136;51.986;4.468;2023-03-25T07:50:25;100231.94;;;10.05;97.33
69528;BME280;57136;51.986;4.468;2023-03-25T07:52:52;100225.94;;;9.88;97.31
69528;BME280;57136;51.986;4.468;2023-03-25T07:55:18;100231.94;;;10.13;96.91
69528;BME280;57136;51.986;4.468;2023-03-25T07:57:43;100226.72;;;10.15;96.91
69528;BME280;57136;51.986;4.468;2023-03-25T08:00:09;100222.47;;;9.80;97.70
69528;BME280;57136;51.986;4.468;2023-03-25T08:02:35;100239.78;;;9.95;97.27
69528;BME280;57136;51.986;4.468;2023-03-25T08:05:01;100232.84;;;10.00;98.15
69528;BME280;57136;51.986;4.468;2023-03-25T08:07:27;100238.91;;;9.99;98.16
69528;BME280;57136;51.986;4.468;2023-03-25T08:09:53;100251.03;;;10.08;97.83
69528;BME280;57136;51.986;4.468;2023-03-25T08:12:19;100251.88;;;10.19;97.94
69528;BME280;57136;51.986;4.468;2023-03-25T08:14:45;100250.16;;;10.18;97.46
69528;BME280;57136;51.986;4.468;2023-03-25T08:17:11;100250.09;;;10.44;95.49
69528;BME280;57136;51.986;4.468;2023-03-25T08:19:37;100252.63;;;10.58;94.85
69528;BME280;57136;51.986;4.468;2023-03-25T08:22:03;100259.63;;;10.44;95.28
69528;BME280;57136;51.986;4.468;2023-03-25T08:24:29;100254.41;;;10.41;96.07
69528;BME280;57136;51.986;4.468;2023-03-25T08:26:56;100260.47;;;10.47;95.68
69528;BME280;57136;51.986;4.468;2023-03-25T08:29:25;100266.47;;;10.60;95.69
69528;BME280;57136;51.986;4.468;2023-03-25T08:31:51;100260.41;;;10.60;95.72
69528;BME280;57136;51.986;4.468;2023-03-25T08:34:18;100263.97;;;10.39;97.22
69528;BME280;57136;51.986;4.468;2023-03-25T08:36:44;100263.16;;;10.24;97.66
69528;BME280;57136;51.986;4.468;2023-03-25T08:39:11;100244.88;;;10.41;95.37
69528;BME280;57136;51.986;4.468;2023-03-25T08:41:37;100231.75;;;10.63;94.92
69528;BME280;57136;51.986;4.468;2023-03-25T08:44:04;100257.84;;;10.55;95.92
69528;BME280;57136;51.986;4.468;2023-03-25T08:46:30;100259.63;;;10.33;96.40
69528;BME280;57136;51.986;4.468;2023-03-25T08:48:55;100254.34;;;10.61;96.25
69528;BME280;57136;51.986;4.468;2023-03-25T08:51:21;100258.66;;;10.68;95.96
69528;BME280;57136;51.986;4.468;2023-03-25T08:53:46;100256.94;;;10.64;95.02
69528;BME280;57136;51.986;4.468;2023-03-25T08:56:12;100266.91;;;11.29;93.48
69528;BME280;57136;51.986;4.468;2023-03-25T08:58:38;100239.19;;;11.22;92.47
69528;BME280;57136;51.986;4.468;2023-03-25T09:01:04;100272.47;;;10.83;92.62
69528;BME280;57136;51.986;4.468;2023-03-25T09:03:29;100275.09;;;10.81;93.50
69528;BME280;57136;51.986;4.468;2023-03-25T09:05:55;100244.75;;;10.69;93.27
69528;BME280;57136;51.986;4.468;2023-03-25T09:08:21;100278.50;;;10.89;93.89
69528;BME280;57136;51.986;4.468;2023-03-25T09:10:47;100288.19;;;10.70;93.43
69528;BME280;57136;51.986;4.468;2023-03-25T09:13:12;100287.97;;;11.04;92.86
69528;BME280;57136;51.986;4.468;2023-03-25T09:15:38;100279.34;;;10.96;92.76
69528;BME280;57136;51.986;4.468;2023-03-25T09:18:03;100289.88;;;10.79;94.07
69528;BME280;57136;51.986;4.468;2023-03-25T09:20:29;100276.78;;;10.84;93.12
69528;BME280;57136;51.986;4.468;2023-03-25T09:22:56;100294.13;;;10.89;93.02
69528;BME280;57136;51.986;4.468;2023-03-25T09:25:21;100270.72;;;10.83;91.20
69528;BME280;57136;51.986;4.468;2023-03-25T09:27:47;100291.44;;;11.03;90.96
69528;BME280;57136;51.986;4.468;2023-03-25T09:30:13;100287.22;;;10.87;89.17
69528;BME280;57136;51.986;4.468;2023-03-25T09:32:40;100283.72;;;10.88;89.59
69528;BME280;57136;51.986;4.468;2023-03-25T09:35:06;100273.97;;;11.18;88.04
69528;BME280;57136;51.986;4.468;2023-03-25T09:37:31;100287.63;;;11.49;87.29
69528;BME280;57136;51.986;4.468;2023-03-25T09:39:57;100285.19;;;11.29;88.16
69528;BME280;57136;51.986;4.468;2023-03-25T09:45:15;100273.06;;;11.25;88.03
69528;BME280;57136;51.986;4.468;2023-03-25T09:48:02;100290.28;;;11.48;87.88
69528;BME280;57136;51.986;4.468;2023-03-25T09:50:31;100304.16;;;11.48;86.99
69528;BME280;57136;51.986;4.468;2023-03-25T09:55:32;100306.31;;;12.06;83.37
69528;BME280;57136;51.986;4.468;2023-03-25T09:58:19;100289.72;;;12.08;82.90
69528;BME280;57136;51.986;4.468;2023-03-25T10:01:18;100314.97;;;12.11;83.45
69528;BME280;57136;51.986;4.468;2023-03-25T10:03:58;100319.38;;;12.06;83.83
69528;BME280;57136;51.986;4.468;2023-03-25T10:06:29;100323.88;;;11.85;85.29
69528;BME280;57136;51.986;4.468;2023-03-25T10:14:20;100311.03;;;11.60;87.42
69528;BME280;57136;51.986;4.468;2023-03-25T10:16:59;100324.06;;;11.60;85.62
69528;BME280;57136;51.986;4.468;2023-03-25T10:19:37;100332.69;;;11.72;83.76
69528;BME280;57136;51.986;4.468;2023-03-25T10:24:48;100336.78;;;12.07;82.37
69528;BME280;57136;51.986;4.468;2023-03-25T10:27:36;100339.50;;;11.88;82.48
69528;BME280;57136;51.986;4.468;2023-03-25T10:32:38;100337.09;;;11.66;83.31
69528;BME280;57136;51.986;4.468;2023-03-25T10:35:10;100309.41;;;11.45;82.64
69528;BME280;57136;51.986;4.468;2023-03-25T10:37:39;100367.34;;;11.91;83.63
69528;BME280;57136;51.986;4.468;2023-03-25T10:40:33;100341.06;;;12.12;80.43
69528;BME280;57136;51.986;4.468;2023-03-25T10:46:22;100316.97;;;11.81;85.55
69528;BME280;57136;51.986;4.468;2023-03-25T10:48:50;100354.38;;;12.70;83.49
69528;BME280;57136;51.986;4.468;2023-03-25T10:51:21;100354.53;;;12.56;79.94
69528;BME280;57136;51.986;4.468;2023-03-25T10:53:49;100358.13;;;12.48;82.01
69528;BME280;57136;51.986;4.468;2023-03-25T10:56:33;100360.25;;;12.08;82.56
69528;BME280;57136;51.986;4.468;2023-03-25T10:59:05;100371.38;;;13.04;80.82
69528;BME280;57136;51.986;4.468;2023-03-25T11:01:40;100377.31;;;12.42;80.91
69528;BME280;57136;51.986;4.468;2023-03-25T11:04:13;100365.88;;;12.55;81.49
69528;BME280;57136;51.986;4.468;2023-03-25T11:06:44;100370.91;;;12.71;80.10
69528;BME280;57136;51.986;4.468;2023-03-25T11:09:16;100366.53;;;12.73;80.25
69528;BME280;57136;51.986;4.468;2023-03-25T11:11:44;100377.06;;;12.65;80.23
69528;BME280;57136;51.986;4.468;2023-03-25T11:14:11;100376.69;;;12.18;80.50
69528;BME280;57136;51.986;4.468;2023-03-25T11:16:52;100383.63;;;12.24;79.83
69528;BME280;57136;51.986;4.468;2023-03-25T11:19:24;100368.97;;;12.07;81.11
69528;BME280;57136;51.986;4.468;2023-03-25T11:22:01;100351.81;;;11.75;81.65
69528;BME280;57136;51.986;4.468;2023-03-25T11:24:33;100380.34;;;12.02;82.93
69528;BME280;57136;51.986;4.468;2023-03-25T11:27:00;100380.34;;;12.00;82.56
69528;BME280;57136;51.986;4.468;2023-03-25T11:29:26;100388.28;;;11.84;83.84
69528;BME280;57136;51.986;4.468;2023-03-25T11:32:20;100378.00;;;11.64;83.59
69528;BME280;57136;51.986;4.468;2023-03-25T11:34:46;100390.78;;;12.87;81.68
69528;BME280;57136;51.986;4.468;2023-03-25T11:37:18;100378.38;;;13.02;78.92
69528;BME280;57136;51.986;4.468;2023-03-25T11:39:49;100392.59;;;12.79;79.18
69528;BME280;57136;51.986;4.468;2023-03-25T11:44:42;100396.28;;;12.61;82.31
69528;BME280;57136;51.986;4.468;2023-03-25T11:47:23;100377.66;;;12.11;81.96
69528;BME280;57136;51.986;4.468;2023-03-25T11:49:51;100399.50;;;12.01;82.21
69528;BME280;57136;51.986;4.468;2023-03-25T11:52:21;100356.63;;;12.23;82.99
69528;BME280;57136;51.986;4.468;2023-03-25T11:54:48;100396.81;;;12.10;83.99
69528;BME280;57136;51.986;4.468;2023-03-25T11:57:21;100380.22;;;12.14;82.55
69528;BME280;57136;51.986;4.468;2023-03-25T11:59:49;100389.56;;;12.40;82.52
69528;BME280;57136;51.986;4.468;2023-03-25T12:02:25;100397.47;;;12.32;81.71
69528;BME280;57136;51.986;4.468;2023-03-25T12:05:13;100387.31;;;11.96;84.30
69528;BME280;57136;51.986;4.468;2023-03-25T12:07:59;100375.97;;;12.02;83.64
69528;BME280;57136;51.986;4.468;2023-03-25T12:13:16;100397.25;;;12.52;82.96
69528;BME280;57136;51.986;4.468;2023-03-25T12:16:12;100378.78;;;13.35;78.29
69528;BME280;57136;51.986;4.468;2023-03-25T12:18:52;100378.88;;;13.30;78.74
69528;BME280;57136;51.986;4.468;2023-03-25T12:24:20;100392.97;;;13.20;78.81
69528;BME280;57136;51.986;4.468;2023-03-25T12:29:40;100374.75;;;13.11;77.30
69528;BME280;57136;51.986;4.468;2023-03-25T12:32:23;100400.84;;;13.18;77.20
69528;BME280;57136;51.986;4.468;2023-03-25T12:40:58;100396.81;;;13.57;76.45
69528;BME280;57136;51.986;4.468;2023-03-25T12:46:48;100412.16;;;13.19;78.52
69528;BME280;57136;51.986;4.468;2023-03-25T12:49:58;100407.13;;;12.25;82.09
69528;BME280;57136;51.986;4.468;2023-03-25T12:52:55;100415.16;;;12.01;84.89
69528;BME280;57136;51.986;4.468;2023-03-25T12:58:25;100417.16;;;11.61;90.42
69528;BME280;57136;51.986;4.468;2023-03-25T13:06:10;100427.31;;;12.03;89.86
69528;BME280;57136;51.986;4.468;2023-03-25T13:08:46;100418.75;;;11.86;88.62
69528;BME280;57136;51.986;4.468;2023-03-25T13:11:20;100430.84;;;11.96;87.95
69528;BME280;57136;51.986;4.468;2023-03-25T13:13:48;100434.22;;;12.13;86.38
69528;BME280;57136;51.986;4.468;2023-03-25T13:16:21;100422.09;;;12.05;86.09
69528;BME280;57136;51.986;4.468;2023-03-25T13:18:49;100429.09;;;11.99;86.57
69528;BME280;57136;51.986;4.468;2023-03-25T13:21:29;100438.00;;;11.67;87.45
69528;BME280;57136;51.986;4.468;2023-03-25T13:24:15;100436.53;;;11.21;91.14
69528;BME280;57136;51.986;4.468;2023-03-25T13:26:43;100423.72;;;10.52;99.85
69528;BME280;57136;51.986;4.468;2023-03-25T13:29:28;100456.69;;;10.04;100.00
69528;BME280;57136;51.986;4.468;2023-03-25T13:31:58;100453.22;;;9.84;100.00
69528;BME280;57136;51.986;4.468;2023-03-25T13:37:31;100436.75;;;10.24;100.00
69528;BME280;57136;51.986;4.468;2023-03-25T13:42:58;100428.94;;;10.28;100.00
69528;BME280;57136;51.986;4.468;2023-03-25T13:45:35;100444.56;;;10.30;100.00
69528;BME280;57136;51.986;4.468;2023-03-25T13:48:13;100434.13;;;10.70;100.00
69528;BME280;57136;51.986;4.468;2023-03-25T13:50:40;100434.38;;;11.89;99.25
69528;BME280;57136;51.986;4.468;2023-03-25T13:55:43;100434.09;;;12.27;94.14
69528;BME280;57136;51.986;4.468;2023-03-25T14:01:25;100443.03;;;12.89;88.56
69528;BME280;57136;51.986;4.468;2023-03-25T14:07:09;100439.94;;;12.54;88.02
69528;BME280;57136;51.986;4.468;2023-03-25T14:12:45;100453.06;;;12.48;87.18
69528;BME280;57136;51.986;4.468;2023-03-25T14:15:14;100459.66;;;12.86;84.74
69528;BME280;57136;51.986;4.468;2023-03-25T14:17:43;100459.56;;;12.96;82.44
69528;BME280;57136;51.986;4.468;2023-03-25T14:20:21;100475.06;;;13.11;83.46
69528;BME280;57136;51.986;4.468;2023-03-25T14:22:57;100469.38;;;12.72;83.75
69528;BME280;57136;51.986;4.468;2023-03-25T14:26:15;100466.97;;;12.50;85.91
69528;BME280;57136;51.986;4.468;2023-03-25T14:28:41;100482.56;;;12.61;86.60
69528;BME280;57136;51.986;4.468;2023-03-25T14:42:00;100490.13;;;11.83;90.38
69528;BME280;57136;51.986;4.468;2023-03-25T14:44:31;100494.47;;;11.86;90.14
69528;BME280;57136;51.986;4.468;2023-03-25T14:52:35;100505.03;;;11.67;90.98